Terminal Aerodrome Forecast
Issued by NWS Wilmington, OH

Home | Current Version | Previous Version | Text Only | Print | Product List | Glossary On
Versions: 1 2 3 4 5 6 7 8 9 10 11 12 13 14 15 16 17 18 19 20 21 22 23 24 25
364
FTUS41 KILN 091410 AAA
TAFCVG
TAF AMD
KCVG 091410Z 0914/1018 25010KT 5SM -SN OVC025
     FM091700 28012G20KT 5SM -SHSN BKN015 OVC025
     FM092300 28010KT P6SM VCSH OVC025
     FM101400 28012KT P6SM OVC025=

USA.gov is the U.S. government's official web portal to all federal, state and local government web resources and services.